createdAt,value
2022-10-30T00:09:18.518Z,71.08
2022-10-30T00:19:19.972Z,71.77
2022-10-30T00:29:24.998Z,72.02
2022-10-30T00:39:26.453Z,72.83
2022-10-30T00:49:27.933Z,73.03
2022-10-30T00:59:33.381Z,73.15
2022-10-30T01:09:35.538Z,73.09
2022-10-30T01:20:15.580Z,73.08
2022-10-30T01:30:50.872Z,73.01
2022-10-30T01:40:56.071Z,73.17
2022-10-30T01:51:12.556Z,72.84
2022-10-30T02:01:15.528Z,73.11
2022-10-30T02:11:18.206Z,72.87
2022-10-30T02:21:20.137Z,73.14
2022-10-30T02:31:21.616Z,73.21
2022-10-30T02:41:23.546Z,73.07
2022-10-30T02:51:25.232Z,73.60
2022-10-30T03:01:27.250Z,73.43
2022-10-30T03:11:33.979Z,73.56
2022-10-30T03:21:35.497Z,73.60
2022-10-30T03:31:37.043Z,73.81
2022-10-30T03:42:07.985Z,73.83
2022-10-30T03:52:09.768Z,74.37
2022-10-30T04:02:11.682Z,74.72
2022-10-30T04:12:15.594Z,74.15
2022-10-30T04:22:17.188Z,74.12
2022-10-30T04:32:19.374Z,74.19
2022-10-30T04:42:21.295Z,73.98
2022-10-30T04:52:22.959Z,74.21
2022-10-30T05:02:25.897Z,74.17
2022-10-30T05:12:28.317Z,74.33
2022-10-30T05:22:31.468Z,74.14
2022-10-30T05:32:33.933Z,73.42
2022-10-30T05:42:35.698Z,73.61
2022-10-30T05:52:39.379Z,73.67
2022-10-30T06:02:43.363Z,74.12
2022-10-30T06:12:56.403Z,73.41
2022-10-30T06:23:08.378Z,73.15
2022-10-30T06:33:35.853Z,72.61
2022-10-30T06:43:37.504Z,71.90
2022-10-30T06:53:44.173Z,70.99
2022-10-30T07:04:08.925Z,69.64
2022-10-30T07:14:10.506Z,68.60
2022-10-30T07:24:19.730Z,67.43
2022-10-30T07:34:46.624Z,66.00
2022-10-30T07:55:48.715Z,61.33
2022-10-30T08:06:13.130Z,58.68
2022-10-30T08:16:14.986Z,54.89
2022-10-30T08:26:17.909Z,48.26
2022-10-30T08:36:19.514Z,39.45
2022-10-30T08:46:21.272Z,32.72
2022-10-30T08:56:22.836Z,28.89
2022-10-30T09:06:36.421Z,24.08
2022-10-30T09:17:02.344Z,22.66
2022-10-30T09:27:05.816Z,22.13
2022-10-30T09:37:19.144Z,22.88
2022-10-30T09:47:24.548Z,23.20
2022-10-30T09:57:38.419Z,22.66
2022-10-30T10:07:51.256Z,22.74
2022-10-30T10:18:20.812Z,24.64
2022-10-30T10:28:25.288Z,27.28
2022-10-30T10:38:32.993Z,25.98
2022-10-30T10:49:02.448Z,24.72
2022-10-30T10:59:13.673Z,24.97
2022-10-30T11:09:20.104Z,26.38
2022-10-30T11:19:21.664Z,32.43
2022-10-30T11:29:27.788Z,37.11
2022-10-30T11:39:35.693Z,38.68
2022-10-30T11:50:02.455Z,39.81
2022-10-30T12:00:14.352Z,40.21
2022-10-30T12:10:27.792Z,40.44
2022-10-30T12:20:29.844Z,39.10
2022-10-30T12:30:37.890Z,38.47
2022-10-30T12:40:45.165Z,38.16
2022-10-30T12:51:06.855Z,37.83
2022-10-30T13:01:46.508Z,37.60
2022-10-30T13:12:15.304Z,37.49
2022-10-30T13:22:22.517Z,37.16
2022-10-30T13:32:32.215Z,36.69
2022-10-30T13:42:48.914Z,37.79
2022-10-30T13:52:54.955Z,38.25
2022-10-30T14:03:12.534Z,40.06
2022-10-30T14:13:20.572Z,43.12
2022-10-30T14:23:25.045Z,44.26
2022-10-30T14:33:53.910Z,44.64
2022-10-30T14:44:04.608Z,45.58
2022-10-30T14:54:32.388Z,46.86
2022-10-30T15:05:12.771Z,47.76
2022-10-30T15:15:18.521Z,49.67
2022-10-30T15:25:22.922Z,49.82
2022-10-30T15:35:27.285Z,50.56
2022-10-30T15:45:33.861Z,51.62
2022-10-30T15:55:35.697Z,52.35
2022-10-30T16:05:37.332Z,53.56
2022-10-30T16:15:39.892Z,54.90
2022-10-30T16:25:46.753Z,55.66
2022-10-30T16:35:55.525Z,56.87
2022-10-30T16:46:12.665Z,57.90
2022-10-30T16:56:32.454Z,58.64
2022-10-30T17:06:41.256Z,59.39
2022-10-30T17:16:52.822Z,60.08
2022-10-30T17:26:57.251Z,60.96
2022-10-30T17:36:59.851Z,61.71
2022-10-30T17:47:13.927Z,62.35
2022-10-30T17:57:16.218Z,63.05
2022-10-30T18:07:17.798Z,63.67
2022-10-30T18:17:19.348Z,64.27
2022-10-30T18:27:21.052Z,64.97
2022-10-30T18:37:22.642Z,65.54
2022-10-30T18:47:24.242Z,66.07
2022-10-30T18:57:25.697Z,66.35
2022-10-30T19:07:27.171Z,66.66
2022-10-30T19:17:31.057Z,67.18
2022-10-30T19:27:32.513Z,67.52
2022-10-30T19:37:34.427Z,67.52
2022-10-30T19:47:36.556Z,67.57
2022-10-30T19:57:38.014Z,68.03
2022-10-30T20:07:39.842Z,68.43
2022-10-30T20:17:41.648Z,68.68
2022-10-30T20:27:44.973Z,68.85
2022-10-30T20:37:58.981Z,68.83
2022-10-30T20:48:00.865Z,69.19
2022-10-30T20:58:02.907Z,69.81
2022-10-30T21:08:04.774Z,69.96
2022-10-30T21:18:06.642Z,70.87
2022-10-30T21:28:08.079Z,70.92
2022-10-30T21:38:09.762Z,70.97
2022-10-30T21:48:11.197Z,71.04
2022-10-30T21:58:13.767Z,71.29
2022-10-30T22:08:17.672Z,71.65
2022-10-30T22:18:20.551Z,71.14
2022-10-30T22:28:22.439Z,70.94
2022-10-30T22:38:23.865Z,70.83
2022-10-30T22:48:25.445Z,70.93
2022-10-30T22:58:30.455Z,71.20
2022-10-30T23:08:32.046Z,71.52
2022-10-30T23:18:34.553Z,71.83
2022-10-30T23:28:36.260Z,71.69
2022-10-30T23:38:37.697Z,71.46
2022-10-30T23:48:39.365Z,71.38
2022-10-30T23:58:48.756Z,71.57
